Time;durP1;ratioP1;P1;durP2;ratioP2;P2;SDS_P1;SDS_P2;PMS_P1;PMS_P2;Temp;Humidity;BMP_temperature;BMP_pressure;BME280_temperature;BME280_humidity;BME280_pressure;Samples;Min_cycle;Max_cycle;Signal;HPM_P1;HPM_P2
2022/04/09 00:00:01;;;;;;;6.00;3.08;;;;;;;2.34;80.67;98625.16;4995286;28;20046;-62
2022/04/09 00:02:29;;;;;;;8.55;3.50;;;;;;;2.29;80.76;98629.47;4994966;28;20046;-61
2022/04/09 00:04:59;;;;;;;5.63;3.05;;;;;;;2.26;81.00;98632.06;4995487;28;20054;-62
2022/04/09 00:07:28;;;;;;;6.93;4.22;;;;;;;2.23;81.27;98634.66;4995438;28;20046;-62
2022/04/09 00:09:58;;;;;;;8.40;3.42;;;;;;;2.21;80.66;98631.25;4995044;28;20058;-62
2022/04/09 00:12:34;;;;;;;6.85;3.22;;;;;;;2.21;80.73;98633.81;4994698;28;20447;-62
2022/04/09 00:15:04;;;;;;;6.95;3.20;;;;;;;2.18;80.78;98637.25;4994553;28;20170;-62
2022/04/09 00:17:39;;;;;;;7.80;3.55;;;;;;;2.15;80.89;98636.41;4995011;28;20061;-62
2022/04/09 00:20:15;;;;;;;7.88;3.15;;;;;;;2.10;81.10;98638.16;4977111;28;20059;-61
2022/04/09 00:22:49;;;;;;;5.53;2.50;;;;;;;2.06;80.79;98631.34;4975460;28;20586;-62
2022/04/09 00:25:21;;;;;;;5.20;3.15;;;;;;;2.00;81.10;98636.50;4975863;28;20050;-62
2022/04/09 00:28:01;;;;;;;7.82;3.00;;;;;;;1.96;81.48;98629.72;4978430;28;20456;-62
2022/04/09 00:30:28;;;;;;;7.22;3.75;;;;;;;1.94;81.79;98636.56;4986257;28;20046;-62
2022/04/09 00:32:59;;;;;;;5.20;3.30;;;;;;;1.88;81.88;98637.44;4994810;28;20050;-62
2022/04/09 00:35:29;;;;;;;6.43;2.92;;;;;;;1.81;82.10;98646.88;4994870;28;20073;-62
2022/04/09 00:37:59;;;;;;;4.88;2.75;;;;;;;1.79;82.74;98647.75;4994873;28;20108;-62
2022/04/09 00:40:27;;;;;;;6.97;3.35;;;;;;;1.80;82.51;98652.00;4994754;28;20460;-62
2022/04/09 00:42:58;;;;;;;6.43;3.40;;;;;;;1.78;83.01;98646.88;4994588;28;20066;-62
2022/04/09 00:45:34;;;;;;;5.75;3.30;;;;;;;1.77;83.06;98654.56;4993726;28;20050;-62
2022/04/09 00:48:02;;;;;;;10.18;3.47;;;;;;;1.76;83.19;98653.72;4975193;28;20130;-62
2022/04/09 00:50:32;;;;;;;5.53;3.03;;;;;;;1.76;83.57;98653.72;4974845;28;20066;-62
2022/04/09 00:53:03;;;;;;;6.90;3.08;;;;;;;1.75;83.30;98646.06;4975160;28;20054;-62
2022/04/09 00:58:21;;;;;;;6.88;3.92;;;;;;;1.71;83.15;98660.56;4994021;28;20076;-62
2022/04/09 01:00:49;;;;;;;7.60;3.83;;;;;;;1.70;83.50;98658.88;4994559;28;20054;-62
2022/04/09 01:03:19;;;;;;;6.40;4.05;;;;;;;1.69;83.49;98661.44;4994221;28;20057;-62
2022/04/09 01:05:49;;;;;;;7.30;4.18;;;;;;;1.67;83.52;98660.59;4994525;28;20050;-62
2022/04/09 01:08:20;;;;;;;9.73;3.70;;;;;;;1.62;83.68;98655.50;4994315;28;20069;-62
2022/04/09 01:10:56;;;;;;;8.75;3.83;;;;;;;1.60;83.55;98652.13;4994300;28;20046;-61
2022/04/09 01:13:30;;;;;;;9.50;4.28;;;;;;;1.57;83.86;98657.25;4994025;28;20054;-62
2022/04/09 01:15:58;;;;;;;8.30;4.10;;;;;;;1.54;83.67;98662.34;4993325;28;20054;-62
2022/04/09 01:18:28;;;;;;;10.48;5.00;;;;;;;1.54;83.56;98655.53;4994198;28;20064;-62
2022/04/09 01:21:01;;;;;;;8.18;4.10;;;;;;;1.53;84.16;98652.97;4994427;28;20046;-62
2022/04/09 01:23:32;;;;;;;10.15;4.40;;;;;;;1.50;83.99;98658.09;4993658;28;20136;-62
2022/04/09 01:26:08;;;;;;;8.40;4.03;;;;;;;1.45;84.01;98659.81;4993967;28;20054;-62
2022/04/09 01:28:39;;;;;;;11.30;4.63;;;;;;;1.41;83.99;98660.69;4992568;28;20490;-62
2022/04/09 01:31:08;;;;;;;11.00;5.20;;;;;;;1.40;84.14;98659.00;4993353;28;20055;-62
2022/04/09 01:33:39;;;;;;;9.23;4.45;;;;;;;1.37;84.13;98664.13;4993966;28;20055;-62
2022/04/09 01:38:51;;;;;;;7.75;4.50;;;;;;;1.28;84.30;98665.00;4993822;28;20046;-62
2022/04/09 01:41:18;;;;;;;7.80;4.47;;;;;;;1.23;84.57;98657.38;4993781;28;20138;-62
2022/04/09 01:43:48;;;;;;;9.07;4.88;;;;;;;1.22;84.51;98655.69;4993885;28;20065;-62
2022/04/09 01:46:16;;;;;;;9.65;5.30;;;;;;;1.19;84.61;98660.81;4974617;28;20059;-62
2022/04/09 01:48:46;;;;;;;9.38;4.78;;;;;;;1.18;84.64;98669.31;4974652;28;20047;-62
2022/04/09 01:51:16;;;;;;;10.68;5.22;;;;;;;1.15;84.48;98660.81;4977077;28;20683;-62
2022/04/09 01:56:42;;;;;;;11.43;5.03;;;;;;;1.10;84.82;98663.38;4996140;28;20371;-62
2022/04/09 01:59:12;;;;;;;7.75;3.83;;;;;;;1.10;84.61;98665.09;4997575;28;20046;-62
2022/04/09 02:01:42;;;;;;;7.57;4.20;;;;;;;1.09;84.78;98655.75;4997563;28;20050;-62
2022/04/09 02:04:13;;;;;;;10.43;4.60;;;;;;;1.08;84.77;98662.56;4997689;28;20132;-61
2022/04/09 02:06:42;;;;;;;11.40;4.38;;;;;;;1.08;84.77;98664.25;4997386;28;20058;-62
2022/04/09 02:09:11;;;;;;;8.15;4.10;;;;;;;1.10;84.94;98665.94;4997548;28;20133;-62
2022/04/09 02:11:59;;;;;;;7.00;4.10;;;;;;;1.08;84.74;98666.81;4997281;28;20161;-62
2022/04/09 02:14:29;;;;;;;6.75;4.35;;;;;;;1.06;84.83;98666.81;4980793;28;20081;-62
2022/04/09 02:16:57;;;;;;;10.23;4.47;;;;;;;1.05;84.74;98667.66;4996989;28;20504;-62
2022/04/09 02:19:27;;;;;;;8.52;4.15;;;;;;;1.03;84.93;98661.69;4996827;28;20515;-62
2022/04/09 02:21:57;;;;;;;10.23;4.10;;;;;;;1.02;84.95;98666.78;4997244;28;20050;-62
2022/04/09 02:24:25;;;;;;;10.90;4.32;;;;;;;1.02;84.93;98666.78;4996811;28;20078;-62
2022/04/09 02:27:07;;;;;;;9.25;4.47;;;;;;;1.01;85.06;98665.94;4996944;28;20061;-62
2022/04/09 02:29:35;;;;;;;5.97;4.22;;;;;;;1.00;84.98;98664.25;4996739;28;20061;-62
2022/04/09 02:32:12;;;;;;;7.63;4.22;;;;;;;0.99;85.20;98654.91;4996960;28;20058;-62
2022/04/09 02:34:41;;;;;;;8.93;4.25;;;;;;;1.01;85.27;98665.94;4996659;28;20122;-62
2022/04/09 02:37:18;;;;;;;7.20;4.28;;;;;;;1.03;85.19;98671.03;4996690;28;20065;-62
2022/04/09 02:39:46;;;;;;;6.15;3.88;;;;;;;1.06;85.17;98673.63;4996658;28;20574;-62
2022/04/09 02:42:21;;;;;;;9.32;4.50;;;;;;;1.07;85.23;98676.16;4996166;28;20479;-62
2022/04/09 02:44:51;;;;;;;7.10;4.22;;;;;;;1.10;85.09;98671.03;4996047;28;20144;-62
2022/04/09 02:47:19;;;;;;;7.18;3.95;;;;;;;1.11;84.95;98672.75;4996286;28;20055;-62
2022/04/09 02:49:49;;;;;;;7.72;4.35;;;;;;;1.13;84.86;98675.28;4996290;28;20089;-62
2022/04/09 02:52:17;;;;;;;11.77;5.20;;;;;;;1.13;84.82;98675.28;4997206;28;20061;-62
2022/04/09 02:54:47;;;;;;;7.60;4.80;;;;;;;1.13;85.21;98680.41;4996322;28;20058;-62
2022/04/09 02:57:22;;;;;;;8.77;5.13;;;;;;;1.13;84.93;98681.25;4996185;28;20471;-62
2022/04/09 02:59:52;;;;;;;10.30;5.30;;;;;;;1.13;84.74;98678.69;4996598;28;20058;-62
2022/04/09 03:02:20;;;;;;;10.68;5.03;;;;;;;1.14;84.76;98677.84;4996528;28;20054;-62
2022/04/09 03:04:51;;;;;;;8.98;4.70;;;;;;;1.14;84.82;98677.84;4996443;28;20053;-62
2022/04/09 03:07:21;;;;;;;8.57;4.80;;;;;;;1.16;84.86;98676.13;4995505;28;20054;-62
2022/04/09 03:09:49;;;;;;;9.88;5.47;;;;;;;1.15;84.56;98674.44;4996489;28;20116;-62
2022/04/09 03:12:30;;;;;;;6.60;4.03;;;;;;;1.15;84.61;98684.63;4990273;28;20126;-62
2022/04/09 03:15:00;;;;;;;8.88;5.65;;;;;;;1.16;84.68;98686.34;4995520;28;20058;-62
2022/04/09 03:17:30;;;;;;;7.25;4.20;;;;;;;1.16;84.81;98691.44;4996169;28;20060;-62
2022/04/09 03:20:00;;;;;;;8.70;4.20;;;;;;;1.16;85.01;98688.88;4996000;28;20050;-62
2022/04/09 03:22:30;;;;;;;8.30;4.20;;;;;;;1.17;84.70;98702.50;4996154;28;20061;-62
2022/04/09 03:25:00;;;;;;;11.95;4.35;;;;;;;1.17;84.66;98700.78;4995966;28;20329;-62
2022/04/09 03:27:30;;;;;;;7.70;4.57;;;;;;;1.17;84.99;98698.25;4995714;28;20081;-62
2022/04/09 03:30:00;;;;;;;9.40;4.75;;;;;;;1.19;84.86;98698.25;4995692;28;20376;-62
2022/04/09 03:32:30;;;;;;;7.57;4.60;;;;;;;1.19;84.80;98696.53;4996090;28;20081;-62
2022/04/09 03:35:00;;;;;;;8.52;4.70;;;;;;;1.21;84.68;98707.59;4995707;28;20470;-62
2022/04/09 03:37:30;;;;;;;8.98;5.00;;;;;;;1.23;84.53;98708.44;4995782;28;20050;-62
2022/04/09 03:40:00;;;;;;;12.00;4.53;;;;;;;1.24;84.53;98715.22;4995911;28;20058;-62
2022/04/09 03:42:42;;;;;;;7.93;4.55;;;;;;;1.25;84.76;98716.94;4995385;28;20387;-62
2022/04/09 03:45:10;;;;;;;10.57;4.45;;;;;;;1.25;84.35;98716.94;4995189;28;20070;-62
2022/04/09 03:47:38;;;;;;;6.50;3.97;;;;;;;1.25;84.59;98727.13;4989556;28;20380;-62
2022/04/09 03:50:07;;;;;;;9.23;4.60;;;;;;;1.30;84.48;98731.38;4995303;28;20050;-62
2022/04/09 03:52:36;;;;;;;11.00;4.13;;;;;;;1.31;84.53;98728.81;4995168;28;20058;-62
2022/04/09 03:55:13;;;;;;;7.88;4.43;;;;;;;1.34;84.12;98727.97;4995564;28;20069;-62
2022/04/09 03:57:53;;;;;;;9.82;3.95;;;;;;;1.37;84.51;98726.25;4995058;28;20050;-62
2022/04/09 04:00:24;;;;;;;8.05;3.88;;;;;;;1.42;84.20;98726.22;4995297;28;20050;-62
2022/04/09 04:02:51;;;;;;;6.00;3.50;;;;;;;1.46;84.12;98726.19;4995305;28;20432;-62
2022/04/09 04:05:19;;;;;;;7.45;3.33;;;;;;;1.50;83.95;98721.94;4995101;28;20383;-62
2022/04/09 04:07:47;;;;;;;6.95;3.25;;;;;;;1.54;83.89;98729.56;4995132;28;20451;-63
2022/04/09 04:10:17;;;;;;;7.63;3.05;;;;;;;1.58;84.02;98720.22;4995414;28;20093;-63
2022/04/09 04:12:52;;;;;;;6.32;3.55;;;;;;;1.66;83.68;98733.81;4995469;28;20108;-63
2022/04/09 04:15:22;;;;;;;5.47;2.78;;;;;;;1.70;83.83;98724.44;4994743;28;20125;-62
2022/04/09 04:17:50;;;;;;;5.85;3.30;;;;;;;1.73;83.63;98735.47;4995279;28;20065;-62
2022/04/09 04:20:18;;;;;;;8.48;3.25;;;;;;;1.78;83.32;98738.84;4994983;28;20054;-62
2022/04/09 04:22:45;;;;;;;5.13;2.75;;;;;;;1.81;83.28;98732.88;4988352;28;20053;-62
2022/04/09 04:25:16;;;;;;;6.38;3.42;;;;;;;1.83;83.20;98737.13;4979122;28;20133;-63
2022/04/09 04:27:52;;;;;;;6.43;2.92;;;;;;;1.87;82.88;98738.81;4991311;28;20058;-63
2022/04/09 04:30:19;;;;;;;6.10;2.97;;;;;;;1.94;82.56;98728.53;4994942;28;20050;-62
2022/04/09 04:32:46;;;;;;;5.00;2.60;;;;;;;1.97;82.65;98743.84;4994302;28;20057;-63
2022/04/09 04:35:14;;;;;;;5.63;3.03;;;;;;;2.03;82.55;98743.81;4994339;28;20058;-63
2022/04/09 04:37:50;;;;;;;7.45;3.15;;;;;;;2.10;82.26;98751.47;4994875;28;20054;-63
2022/04/09 04:40:18;;;;;;;5.80;3.00;;;;;;;2.18;82.13;98751.41;4994498;28;20550;-62
2022/04/09 04:42:49;;;;;;;5.07;3.20;;;;;;;2.28;81.44;98755.63;4994818;28;20046;-64
2022/04/09 04:45:20;;;;;;;5.60;2.97;;;;;;;2.38;81.62;98752.13;4994670;28;20057;-63
2022/04/09 04:47:57;;;;;;;6.47;3.33;;;;;;;2.52;81.47;98752.88;4994867;28;20053;-63
2022/04/09 04:50:28;;;;;;;6.05;2.85;;;;;;;2.70;80.78;98758.72;4975334;28;20070;-63
2022/04/09 04:52:58;;;;;;;4.45;2.60;;;;;;;2.95;80.64;98760.19;4975373;28;20081;-63
2022/04/09 04:55:26;;;;;;;7.72;3.08;;;;;;;3.19;79.51;98763.41;4993170;28;20491;-63
2022/04/09 04:57:58;;;;;;;7.25;2.78;;;;;;;3.45;78.01;98766.53;4994552;28;20081;-63
2022/04/09 05:00:26;;;;;;;8.25;2.60;;;;;;;3.74;77.49;98769.63;4994603;28;20047;-63
2022/04/09 05:02:58;;;;;;;6.40;3.03;;;;;;;4.07;76.81;98782.88;4988639;28;20090;-63
2022/04/09 05:05:35;;;;;;;7.43;3.13;;;;;;;4.36;74.86;98785.91;4994264;28;20475;-63
2022/04/09 05:08:05;;;;;;;6.93;3.20;;;;;;;4.69;74.17;98788.84;4994505;28;20050;-62
2022/04/09 05:10:34;;;;;;;7.55;3.35;;;;;;;4.94;73.28;98791.88;4994150;28;20050;-62
2022/04/09 05:13:17;;;;;;;9.23;5.05;;;;;;;5.20;71.76;98792.28;4994197;28;20145;-62
2022/04/09 05:15:47;;;;;;;15.48;6.47;;;;;;;5.44;71.51;98788.41;4993871;28;20062;-63
2022/04/09 05:18:15;;;;;;;9.13;3.63;;;;;;;5.63;70.86;98792.31;4993885;28;20054;-62
2022/04/09 05:20:43;;;;;;;7.80;3.85;;;;;;;5.82;69.99;98792.84;4994135;28;20482;-62
2022/04/09 05:23:13;;;;;;;7.43;3.55;;;;;;;5.93;68.26;98811.50;4994166;28;20073;-62
2022/04/09 05:25:43;;;;;;;7.10;3.22;;;;;;;6.03;67.76;98812.16;4994330;28;20078;-62
2022/04/09 05:28:19;;;;;;;7.05;3.20;;;;;;;6.14;67.28;98810.19;4994115;28;20060;-64
2022/04/09 05:30:50;;;;;;;6.90;3.45;;;;;;;6.36;66.98;98814.91;4997685;28;20061;-63
2022/04/09 05:33:20;;;;;;;7.47;3.80;;;;;;;6.53;65.83;98825.69;5000379;28;20411;-63
2022/04/09 05:35:51;;;;;;;7.57;4.22;;;;;;;6.73;65.70;98830.38;5000599;28;20057;-63
2022/04/09 05:38:28;;;;;;;5.70;3.30;;;;;;;6.86;64.76;98835.22;5000407;28;20058;-63
2022/04/09 05:40:58;;;;;;;7.38;3.25;;;;;;;6.95;63.88;98831.56;5000439;28;20054;-63
2022/04/09 05:43:34;;;;;;;9.80;3.63;;;;;;;7.04;63.29;98851.13;5000623;28;20137;-63
2022/04/09 05:46:02;;;;;;;6.13;3.60;;;;;;;7.07;62.50;98846.72;5000278;28;20058;-63
2022/04/09 05:48:30;;;;;;;6.35;3.50;;;;;;;7.24;62.44;98861.78;5000152;28;20463;-63
2022/04/09 05:51:01;;;;;;;6.68;3.55;;;;;;;7.39;62.33;98856.25;5000145;28;20371;-63
2022/04/09 05:53:31;;;;;;;9.95;3.70;;;;;;;7.68;61.37;98864.97;5000270;28;20068;-63
2022/04/09 05:56:00;;;;;;;5.25;3.42;;;;;;;7.96;60.83;98859.94;5000275;28;20129;-63
2022/04/09 05:58:36;;;;;;;5.85;3.28;;;;;;;8.24;58.69;98859.09;5000091;28;20463;-63
2022/04/09 06:01:04;;;;;;;6.53;2.90;;;;;;;8.57;58.17;98874.56;5000545;28;20062;-63
2022/04/09 06:03:33;;;;;;;8.90;3.65;;;;;;;8.92;57.28;98859.75;5000078;28;20080;-64
2022/04/09 06:06:02;;;;;;;5.13;2.60;;;;;;;9.25;56.17;98868.16;5000445;28;20058;-63
2022/04/09 06:08:32;;;;;;;7.80;2.70;;;;;;;9.62;55.16;98866.03;5000236;28;20046;-63
2022/04/09 06:11:02;;;;;;;5.18;2.20;;;;;;;9.89;53.56;98866.84;4999900;28;20478;-62
2022/04/09 06:13:44;;;;;;;6.45;2.60;;;;;;;10.18;52.40;98873.56;4994111;28;20436;-63
2022/04/09 06:16:22;;;;;;;8.40;2.83;;;;;;;10.51;51.39;98881.88;4999403;28;20363;-63
2022/04/09 06:18:52;;;;;;;6.80;2.30;;;;;;;10.83;51.13;98872.88;5000252;28;20124;-63
2022/04/09 06:21:21;;;;;;;7.45;2.40;;;;;;;11.17;49.83;98867.22;4999712;28;20054;-63
2022/04/09 06:23:50;;;;;;;5.20;2.13;;;;;;;11.47;48.20;98879.88;5000402;28;20064;-63
2022/04/09 06:26:20;;;;;;;7.10;2.30;;;;;;;11.84;47.25;98880.03;4999944;28;20058;-63
2022/04/09 06:29:02;;;;;;;7.63;1.90;;;;;;;12.27;44.55;98893.75;5000202;28;20116;-63
2022/04/09 06:31:32;;;;;;;7.53;2.20;;;;;;;12.35;44.31;98886.47;4999820;28;20065;-63
2022/04/09 06:34:02;;;;;;;4.95;2.20;;;;;;;12.78;44.67;98889.72;4999957;28;20043;-63
2022/04/09 06:36:32;;;;;;;6.53;2.10;;;;;;;13.12;43.46;98883.78;4999095;28;20054;-63
2022/04/09 06:39:02;;;;;;;5.72;1.98;;;;;;;13.39;41.73;98897.22;4999674;28;20638;-64
2022/04/09 06:41:33;;;;;;;7.05;1.80;;;;;;;13.51;40.87;98886.22;4998131;28;20065;-63
2022/04/09 06:44:13;;;;;;;6.70;2.17;;;;;;;13.72;40.19;98886.94;4996539;28;20054;-64
2022/04/09 06:46:43;;;;;;;8.30;1.95;;;;;;;13.77;40.66;98888.38;4996419;28;20491;-63
2022/04/09 06:49:20;;;;;;;3.88;1.63;;;;;;;13.83;39.70;98897.66;4996683;28;20042;-64
2022/04/09 06:51:55;;;;;;;4.32;1.85;;;;;;;13.56;39.99;98894.66;4996752;28;20092;-64
2022/04/09 06:54:22;;;;;;;8.50;2.60;;;;;;;13.13;39.98;98901.91;4996624;28;20058;-63
2022/04/09 06:56:52;;;;;;;10.05;3.03;;;;;;;12.76;40.87;98901.94;4996665;28;20053;-63
2022/04/09 06:59:29;;;;;;;6.80;2.47;;;;;;;12.25;41.75;98905.97;4996846;28;20133;-63
2022/04/09 07:01:59;;;;;;;7.15;2.38;;;;;;;12.16;42.71;98904.63;4996449;28;20051;-63
2022/04/09 07:04:28;;;;;;;5.35;1.95;;;;;;;12.05;41.87;98916.38;4996357;28;20451;-63
2022/04/09 07:06:58;;;;;;;5.07;2.22;;;;;;;12.04;41.86;98907.75;4988475;28;20686;-63
2022/04/09 07:09:27;;;;;;;5.97;2.50;;;;;;;12.25;42.33;98912.00;4982456;28;20376;-63
2022/04/09 07:11:55;;;;;;;6.57;2.45;;;;;;;12.51;41.76;98918.66;4990916;28;20061;-63
2022/04/09 07:14:31;;;;;;;7.82;2.25;;;;;;;12.54;40.85;98923.72;4990745;28;20059;-63
2022/04/09 07:17:03;;;;;;;8.07;2.85;;;;;;;12.51;41.32;98923.84;4995988;28;20058;-62
2022/04/09 07:19:30;;;;;;;5.40;2.25;;;;;;;12.70;40.57;98929.06;4977690;28;20455;-64
2022/04/09 07:21:59;;;;;;;8.63;2.60;;;;;;;12.75;39.54;98927.09;4995190;28;20101;-64
2022/04/09 07:24:29;;;;;;;4.55;1.75;;;;;;;12.95;40.25;98939.16;4996331;28;20054;-62
2022/04/09 07:29:53;;;;;;;6.53;2.00;;;;;;;13.27;38.19;98946.34;4990646;28;20042;-61
2022/04/09 07:32:22;;;;;;;6.53;2.38;;;;;;;13.61;38.72;98955.16;4996062;28;20132;-62
2022/04/09 07:34:50;;;;;;;8.52;2.53;;;;;;;13.74;38.08;98942.38;4995853;28;20042;-62
2022/04/09 07:37:18;;;;;;;6.93;2.55;;;;;;;13.94;37.74;98951.78;4995766;28;20054;-62
2022/04/09 07:39:49;;;;;;;8.43;2.70;;;;;;;14.03;37.89;98946.13;4995482;28;20133;-62
2022/04/09 07:42:19;;;;;;;4.70;2.08;;;;;;;14.24;37.67;98960.69;4995687;28;20113;-62
2022/04/09 07:44:56;;;;;;;6.05;1.60;;;;;;;14.27;36.90;98942.28;4991115;28;20047;-62
2022/04/09 07:47:25;;;;;;;5.22;1.88;;;;;;;14.15;35.72;98961.16;4994279;28;20050;-62
2022/04/09 07:49:55;;;;;;;4.63;1.70;;;;;;;14.31;35.95;98972.47;4989291;28;20097;-62
2022/04/09 07:52:32;;;;;;;7.45;1.67;;;;;;;14.25;35.93;98970.19;4984718;28;20160;-62
2022/04/09 07:55:02;;;;;;;6.97;2.17;;;;;;;14.20;36.56;98977.38;4986880;28;20057;-62
2022/04/09 07:57:32;;;;;;;3.80;1.30;;;;;;;13.98;36.44;98968.94;4985662;28;20042;-62
2022/04/09 08:00:08;;;;;;;5.75;1.38;;;;;;;14.22;35.72;98988.56;4989625;28;20042;-62
2022/04/09 08:02:44;;;;;;;6.47;1.30;;;;;;;14.15;35.50;98997.63;4990116;28;20072;-62
2022/04/09 08:05:15;;;;;;;4.88;2.05;;;;;;;13.83;35.07;98987.03;4987482;28;20747;-62
2022/04/09 08:07:45;;;;;;;9.07;1.60;;;;;;;13.45;35.78;99009.69;4985845;28;20456;-62
2022/04/09 08:10:15;;;;;;;10.23;2.30;;;;;;;13.15;36.92;99003.31;4985345;28;20093;-62
2022/04/09 08:12:46;;;;;;;4.22;1.67;;;;;;;12.90;37.37;99008.75;4994375;28;20056;-63
2022/04/09 08:15:19;;;;;;;3.75;1.70;;;;;;;12.40;37.57;99013.56;4980708;28;20070;-63
2022/04/09 08:17:46;;;;;;;5.43;1.65;;;;;;;12.29;37.74;99014.03;4993624;28;20141;-63
2022/04/09 08:20:16;;;;;;;8.90;2.17;;;;;;;12.07;38.72;99021.88;4995045;28;20042;-63
2022/04/09 08:22:46;;;;;;;5.30;1.60;;;;;;;12.43;38.77;99024.69;4994982;28;20050;-63
2022/04/09 08:25:16;;;;;;;4.72;1.67;;;;;;;12.83;38.08;99015.16;4987291;28;20050;-63
2022/04/09 08:27:50;;;;;;;6.22;1.80;;;;;;;13.21;36.88;99018.66;4974917;28;20082;-63
2022/04/09 08:30:24;;;;;;;3.47;1.27;;;;;;;13.57;37.11;99029.97;4978772;28;20070;-63
2022/04/09 08:33:04;;;;;;;4.45;1.50;;;;;;;13.89;35.79;99031.00;4994535;28;20430;-63
2022/04/09 08:35:35;;;;;;;8.98;1.88;;;;;;;14.12;34.55;99040.31;4994421;28;20474;-63
2022/04/09 08:38:05;;;;;;;4.03;1.60;;;;;;;14.12;33.53;99057.72;4994730;28;20076;-63
2022/04/09 08:40:37;;;;;;;10.02;1.20;;;;;;;13.96;33.10;99059.34;4994753;28;20521;-63
2022/04/09 08:43:08;;;;;;;4.22;1.35;;;;;;;13.74;33.43;99065.59;4994623;28;20057;-62
2022/04/09 08:45:40;;;;;;;5.25;1.08;;;;;;;13.72;33.75;99067.44;4994278;28;20058;-62
2022/04/09 08:48:12;;;;;;;5.50;1.23;;;;;;;13.61;33.41;99061.06;4994937;28;20100;-62
2022/04/09 08:50:51;;;;;;;4.28;1.45;;;;;;;13.47;34.37;99072.09;4994419;28;20086;-62
2022/04/09 08:53:19;;;;;;;6.65;1.10;;;;;;;13.41;33.79;99067.16;4994555;28;20069;-61
2022/04/09 08:55:48;;;;;;;10.73;1.58;;;;;;;13.31;33.29;99071.13;4994460;28;20050;-62
2022/04/09 08:58:15;;;;;;;8.50;1.58;;;;;;;12.98;33.09;99071.66;4993880;28;20062;-62
2022/04/09 09:00:57;;;;;;;5.03;1.50;;;;;;;12.78;33.86;99069.09;4994256;28;20056;-63
2022/04/09 09:03:25;;;;;;;5.30;1.55;;;;;;;12.69;34.66;99067.75;4993685;28;20054;-63
2022/04/09 09:05:55;;;;;;;5.50;1.10;;;;;;;12.64;34.92;99073.16;4988619;28;20398;-63
2022/04/09 09:08:41;;;;;;;9.48;1.35;;;;;;;12.63;34.83;99061.06;4990981;28;20065;-63
2022/04/09 09:11:11;;;;;;;4.47;1.27;;;;;;;12.66;35.13;99069.66;4980491;28;20133;-62
2022/04/09 09:13:50;;;;;;;3.90;0.90;;;;;;;12.81;34.38;99055.97;4994229;28;20085;-63
2022/04/09 09:16:29;;;;;;;3.15;1.45;;;;;;;13.04;34.71;99078.38;4993441;28;20081;-63
2022/04/09 09:18:59;;;;;;;4.32;1.40;;;;;;;13.14;34.61;99059.69;4994335;28;20054;-63
2022/04/09 09:21:29;;;;;;;8.18;1.55;;;;;;;13.06;34.80;99068.75;4994180;28;20122;-63
2022/04/09 09:24:16;;;;;;;7.68;1.48;;;;;;;13.03;35.14;99076.69;4993810;28;20133;-63
2022/04/09 09:26:52;;;;;;;5.93;1.40;;;;;;;13.01;35.69;99076.75;4993424;28;20387;-62
2022/04/09 09:29:33;;;;;;;6.05;1.50;;;;;;;12.95;35.72;99079.59;4987379;28;20055;-62
2022/04/09 09:32:25;;;;;;;6.78;2.15;;;;;;;12.87;36.28;99086.91;4993813;28;20089;-61
2022/04/09 09:35:00;;;;;;;4.03;1.40;;;;;;;12.53;37.10;99095.31;4994163;28;20483;-62
2022/04/09 09:37:31;;;;;;;7.03;1.70;;;;;;;12.48;37.95;99105.88;4993829;28;20058;-63
2022/04/09 09:39:59;;;;;;;3.78;1.50;;;;;;;12.33;38.22;99101.34;4993918;28;20162;-63
2022/04/09 09:42:32;;;;;;;6.15;1.75;;;;;;;12.22;38.93;99113.91;4993677;28;20062;-62
2022/04/09 09:45:02;;;;;;;4.50;2.25;;;;;;;12.02;39.19;99106.09;4984314;28;20396;-62
2022/04/09 09:47:59;;;;;;;4.70;1.85;;;;;;;11.85;39.26;99110.19;4974513;28;20050;-62
2022/04/09 09:50:45;;;;;;;5.30;1.40;;;;;;;11.64;37.98;99121.38;4974279;28;20542;-62
2022/04/09 09:53:14;;;;;;;;;;;;;;;11.44;38.28;99122.09;4974051;28;20440;-62
2022/04/09 09:55:46;;;;;;;5.20;1.33;;;;;;;11.28;39.04;99139.97;4974427;28;19936;-62
2022/04/09 09:58:16;;;;;;;7.70;1.40;;;;;;;11.03;40.99;99165.09;4974083;28;20439;-62
2022/04/09 10:00:47;;;;;;;4.30;1.73;;;;;;;10.27;47.96;99183.19;4974556;28;20105;-62
2022/04/09 10:03:17;;;;;;;6.47;1.60;;;;;;;9.76;50.16;99176.91;4980638;28;20077;-62
2022/04/09 10:05:47;;;;;;;5.05;1.60;;;;;;;9.38;51.86;99185.81;4994323;28;20050;-62
2022/04/09 10:08:18;;;;;;;7.47;1.75;;;;;;;9.18;52.87;99208.75;4993780;28;20069;-62
2022/04/09 10:10:56;;;;;;;6.40;1.65;;;;;;;8.83;57.49;99233.75;4993950;28;20046;-62
2022/04/09 10:13:25;;;;;;;4.95;1.30;;;;;;;8.42;61.31;99249.41;4993554;28;20054;-62
2022/04/09 10:15:55;;;;;;;3.10;1.00;;;;;;;8.09;62.80;99218.28;4993276;28;20068;-62
2022/04/09 10:18:33;;;;;;;3.38;1.05;;;;;;;7.89;62.52;99204.97;4997241;28;20050;-62
2022/04/09 10:21:03;;;;;;;5.60;1.23;;;;;;;7.74;63.45;99205.28;4997494;28;20419;-62
2022/04/09 10:23:34;;;;;;;2.03;1.08;;;;;;;7.75;64.92;99201.81;4997252;28;20054;-62
2022/04/09 10:26:02;;;;;;;4.07;1.08;;;;;;;7.85;67.00;99198.19;4997119;28;20073;-62
2022/04/09 10:28:32;;;;;;;10.00;4.30;;;;;;;7.98;66.33;99194.44;4997202;28;20058;-62
2022/04/09 10:31:03;;;;;;;4.53;1.85;;;;;;;8.11;65.87;99201.03;4997234;28;20047;-62
2022/04/09 10:33:57;;;;;;;3.35;1.27;;;;;;;8.29;66.23;99204.06;4997437;28;20065;-62
2022/04/09 10:37:03;;;;;;;8.73;3.95;;;;;;;8.43;66.42;99210.66;4998321;28;20058;-61
2022/04/09 10:39:42;;;;;;;4.57;2.15;;;;;;;8.62;66.66;99198.13;4996866;28;20072;-61
2022/04/09 10:42:19;;;;;;;3.63;1.73;;;;;;;8.87;65.41;99207.88;4997140;28;20054;-62
2022/04/09 10:48:11;;;;;;;7.13;1.85;;;;;;;9.23;62.54;99221.53;4997023;28;20054;-62
2022/04/09 10:51:01;;;;;;;4.30;1.65;;;;;;;9.38;61.27;99206.50;4996275;28;20133;-62
2022/04/09 10:53:31;;;;;;;4.15;1.55;;;;;;;9.60;61.94;99205.88;4988551;28;20051;-62
2022/04/09 10:56:20;;;;;;;6.60;1.92;;;;;;;9.80;60.48;99203.56;4979234;28;20377;-62
2022/04/09 10:59:08;;;;;;;7.78;2.00;;;;;;;10.06;57.89;99198.47;4980766;28;20478;-60
2022/04/09 11:01:53;;;;;;;7.30;2.60;;;;;;;10.32;55.56;99199.41;4977273;28;20082;-60
2022/04/09 11:04:39;;;;;;;7.75;1.63;;;;;;;10.54;53.93;99203.03;4991981;28;20134;-59
2022/04/09 11:07:11;;;;;;;5.72;1.80;;;;;;;10.73;54.13;99198.94;4996345;28;20054;-60
2022/04/09 11:12:56;;;;;;;6.75;1.92;;;;;;;10.91;50.83;99217.34;4991470;28;20056;-60
2022/04/09 11:15:26;;;;;;;5.95;1.65;;;;;;;10.95;50.81;99208.59;4990846;28;20051;-60
2022/04/09 11:18:01;;;;;;;5.28;2.17;;;;;;;11.02;51.02;99220.47;4995929;28;20062;-60
2022/04/09 11:20:41;;;;;;;4.55;1.75;;;;;;;11.12;47.53;99201.09;4995767;28;20054;-59
2022/04/09 11:23:26;;;;;;;4.60;1.90;;;;;;;11.17;47.19;99209.56;4995863;28;20050;-59
2022/04/09 11:25:59;;;;;;;5.57;1.50;;;;;;;11.20;44.32;99208.59;4995037;28;20466;-60
2022/04/09 11:28:29;;;;;;;7.53;1.35;;;;;;;11.18;44.92;99216.44;4992529;28;20042;-60
2022/04/09 11:31:00;;;;;;;7.50;2.17;;;;;;;11.23;45.63;99209.34;4986905;28;20050;-60
2022/04/09 11:33:28;;;;;;;6.97;1.65;;;;;;;11.33;44.46;99215.88;4992951;28;20471;-60
2022/04/09 11:36:05;;;;;;;3.80;1.40;;;;;;;11.36;39.94;99189.84;4995650;28;20492;-60
2022/04/09 11:38:46;;;;;;;3.85;1.10;;;;;;;11.39;38.90;99215.66;4995962;28;20482;-60
2022/04/09 11:41:20;;;;;;;2.83;1.10;;;;;;;11.49;36.79;99220.56;4995813;28;20073;-61
2022/04/09 11:43:50;;;;;;;5.03;1.02;;;;;;;11.51;37.67;99208.38;4994249;28;20073;-60
2022/04/09 11:46:21;;;;;;;5.78;2.22;;;;;;;11.68;37.56;99211.19;4984968;28;20101;-60
2022/04/09 11:48:57;;;;;;;4.35;1.35;;;;;;;11.84;37.64;99217.53;4976513;28;20055;-61
2022/04/09 11:51:25;;;;;;;4.18;1.15;;;;;;;12.02;37.49;99225.56;4976222;28;20113;-60
2022/04/09 11:54:17;;;;;;;5.07;1.38;;;;;;;12.07;35.91;99229.66;4976114;28;20436;-60
2022/04/09 11:56:47;;;;;;;4.68;1.00;;;;;;;11.93;34.47;99232.75;4976229;28;20094;-60
2022/04/09 11:59:15;;;;;;;3.85;1.00;;;;;;;11.99;34.77;99237.75;4977901;28;20377;-60
2022/04/09 12:01:45;;;;;;;3.78;0.90;;;;;;;11.90;33.91;99226.84;4989328;28;20590;-61
2022/04/09 12:04:22;;;;;;;7.63;1.63;;;;;;;11.92;35.53;99236.25;4996616;28;20085;-60
2022/04/09 12:07:05;;;;;;;3.42;1.13;;;;;;;11.92;35.16;99238.84;4995835;28;20089;-60
2022/04/09 12:09:40;;;;;;;6.60;1.10;;;;;;;12.02;34.80;99243.72;4995333;28;20057;-59
2022/04/09 12:12:11;;;;;;;6.30;1.50;;;;;;;12.03;34.71;99242.81;4994749;28;20132;-58
2022/04/09 12:14:48;;;;;;;6.55;1.25;;;;;;;11.89;34.89;99257.16;4994386;28;20093;-58
2022/04/09 12:17:18;;;;;;;4.93;1.17;;;;;;;11.71;35.21;99263.00;4995396;28;20081;-58